sensor_id;sensor_type;location;lat;lon;timestamp;pressure;altitude;pressure_sealevel;temperature;humidity
51333;BME280;37417;48.118;11.734;2022-07-23T00:00:40;95441.75;;;22.95;85.39
51333;BME280;37417;48.118;11.734;2022-07-23T00:03:25;95436.44;;;22.95;84.85
51333;BME280;37417;48.118;11.734;2022-07-23T00:06:11;95436.44;;;22.90;85.91
51333;BME280;37417;48.118;11.734;2022-07-23T00:08:57;95431.09;;;22.85;86.09
51333;BME280;37417;48.118;11.734;2022-07-23T00:11:43;95417.53;;;22.91;83.95
51333;BME280;37417;48.118;11.734;2022-07-23T00:14:28;95404.13;;;23.12;79.12
51333;BME280;37417;48.118;11.734;2022-07-23T00:17:14;95414.47;;;23.18;77.57
51333;BME280;37417;48.118;11.734;2022-07-23T00:20:00;95408.41;;;23.13;77.39
51333;BME280;37417;48.118;11.734;2022-07-23T00:22:50;95423.59;;;23.07;77.59
51333;BME280;37417;48.118;11.734;2022-07-23T00:25:36;95417.81;;;22.95;79.43
51333;BME280;37417;48.118;11.734;2022-07-23T00:28:22;95419.13;;;22.92;81.11
51333;BME280;37417;48.118;11.734;2022-07-23T00:31:07;95407.97;;;22.90;81.65
51333;BME280;37417;48.118;11.734;2022-07-23T00:33:53;95425.28;;;22.78;83.02
51333;BME280;37417;48.118;11.734;2022-07-23T00:36:42;95428.25;;;22.66;84.61
51333;BME280;37417;48.118;11.734;2022-07-23T00:39:27;95435.50;;;22.55;86.00
51333;BME280;37417;48.118;11.734;2022-07-23T00:42:13;95433.38;;;22.47;87.63
51333;BME280;37417;48.118;11.734;2022-07-23T00:44:59;95431.75;;;22.56;85.40
51333;BME280;37417;48.118;11.734;2022-07-23T00:47:44;95425.09;;;22.54;86.68
51333;BME280;37417;48.118;11.734;2022-07-23T00:50:30;95427.53;;;22.50;86.65
51333;BME280;37417;48.118;11.734;2022-07-23T00:53:16;95420.06;;;22.52;87.26
51333;BME280;37417;48.118;11.734;2022-07-23T00:56:02;95434.94;;;22.53;86.72
51333;BME280;37417;48.118;11.734;2022-07-23T00:58:48;95439.47;;;22.53;86.80
51333;BME280;37417;48.118;11.734;2022-07-23T01:01:34;95433.63;;;22.51;87.16
51333;BME280;37417;48.118;11.734;2022-07-23T01:04:20;95450.94;;;22.48;87.43
51333;BME280;37417;48.118;11.734;2022-07-23T01:07:06;95441.34;;;22.47;87.59
51333;BME280;37417;48.118;11.734;2022-07-23T01:09:53;95470.63;;;22.42;88.17
51333;BME280;37417;48.118;11.734;2022-07-23T01:12:39;95469.56;;;22.28;89.93
51333;BME280;37417;48.118;11.734;2022-07-23T01:15:25;95485.78;;;22.21;91.09
51333;BME280;37417;48.118;11.734;2022-07-23T01:18:11;95501.19;;;22.19;92.16
51333;BME280;37417;48.118;11.734;2022-07-23T01:20:58;95529.91;;;22.22;92.20
51333;BME280;37417;48.118;11.734;2022-07-23T01:23:43;95552.47;;;22.30;92.47
51333;BME280;37417;48.118;11.734;2022-07-23T01:26:29;95566.53;;;22.46;93.05
51333;BME280;37417;48.118;11.734;2022-07-23T01:29:15;95574.53;;;22.56;92.75
51333;BME280;37417;48.118;11.734;2022-07-23T01:32:01;95596.31;;;22.58;91.07
51333;BME280;37417;48.118;11.734;2022-07-23T01:34:47;95585.16;;;22.51;87.27
51333;BME280;37417;48.118;11.734;2022-07-23T01:37:33;95594.47;;;22.43;84.87
51333;BME280;37417;48.118;11.734;2022-07-23T01:40:18;95574.72;;;21.93;82.88
51333;BME280;37417;48.118;11.734;2022-07-23T01:43:04;95599.03;;;21.44;87.16
51333;BME280;37417;48.118;11.734;2022-07-23T01:45:50;95586.63;;;21.02;88.83
51333;BME280;37417;48.118;11.734;2022-07-23T01:48:35;95585.47;;;20.88;87.46
51333;BME280;37417;48.118;11.734;2022-07-23T01:51:21;95581.25;;;20.92;85.44
51333;BME280;37417;48.118;11.734;2022-07-23T01:54:07;95568.34;;;21.11;81.77
51333;BME280;37417;48.118;11.734;2022-07-23T01:56:52;95559.63;;;21.16;79.88
51333;BME280;37417;48.118;11.734;2022-07-23T01:59:38;95570.19;;;21.10;80.62
51333;BME280;37417;48.118;11.734;2022-07-23T02:02:24;95572.28;;;21.03;81.36
51333;BME280;37417;48.118;11.734;2022-07-23T02:05:10;95578.59;;;20.92;82.74
51333;BME280;37417;48.118;11.734;2022-07-23T02:07:56;95584.88;;;20.76;85.20
51333;BME280;37417;48.118;11.734;2022-07-23T02:10:42;95581.56;;;20.59;87.23
51333;BME280;37417;48.118;11.734;2022-07-23T02:13:28;95573.56;;;20.48;89.36
51333;BME280;37417;48.118;11.734;2022-07-23T02:16:14;95565.84;;;20.47;89.14
51333;BME280;37417;48.118;11.734;2022-07-23T02:19:00;95582.81;;;20.46;89.54
51333;BME280;37417;48.118;11.734;2022-07-23T02:21:46;95590.97;;;20.44;90.49
51333;BME280;37417;48.118;11.734;2022-07-23T02:24:32;95582.31;;;20.22;94.50
51333;BME280;37417;48.118;11.734;2022-07-23T02:27:17;95581.19;;;20.13;96.68
51333;BME280;37417;48.118;11.734;2022-07-23T02:30:04;95562.00;;;20.00;99.84
51333;BME280;37417;48.118;11.734;2022-07-23T02:32:50;95551.25;;;19.80;100.00
51333;BME280;37417;48.118;11.734;2022-07-23T02:35:35;95553.31;;;19.29;100.00
51333;BME280;37417;48.118;11.734;2022-07-23T02:38:21;95536.47;;;18.91;100.00
51333;BME280;37417;48.118;11.734;2022-07-23T02:41:07;95514.41;;;18.64;100.00
51333;BME280;37417;48.118;11.734;2022-07-23T02:43:52;95524.97;;;18.25;100.00
51333;BME280;37417;48.118;11.734;2022-07-23T02:46:38;95538.31;;;18.02;100.00
51333;BME280;37417;48.118;11.734;2022-07-23T02:49:24;95543.25;;;17.81;100.00
51333;BME280;37417;48.118;11.734;2022-07-23T02:52:09;95534.25;;;17.66;100.00
51333;BME280;37417;48.118;11.734;2022-07-23T02:54:58;95542.69;;;17.51;100.00
51333;BME280;37417;48.118;11.734;2022-07-23T02:57:43;95561.63;;;17.48;100.00
51333;BME280;37417;48.118;11.734;2022-07-23T03:00:29;95580.47;;;17.40;100.00
51333;BME280;37417;48.118;11.734;2022-07-23T03:03:15;95606.47;;;17.48;100.00
51333;BME280;37417;48.118;11.734;2022-07-23T03:06:00;95645.09;;;17.54;100.00
51333;BME280;37417;48.118;11.734;2022-07-23T03:08:46;95653.75;;;17.78;100.00
51333;BME280;37417;48.118;11.734;2022-07-23T03:11:32;95648.81;;;18.10;100.00
51333;BME280;37417;48.118;11.734;2022-07-23T03:14:17;95645.13;;;18.11;100.00
51333;BME280;37417;48.118;11.734;2022-07-23T03:17:03;95646.53;;;17.73;100.00
51333;BME280;37417;48.118;11.734;2022-07-23T03:19:49;95640.47;;;17.09;100.00
51333;BME280;37417;48.118;11.734;2022-07-23T03:22:34;95659.75;;;16.74;100.00
51333;BME280;37417;48.118;11.734;2022-07-23T03:25:20;95678.22;;;16.56;100.00
51333;BME280;37417;48.118;11.734;2022-07-23T03:28:06;95669.16;;;16.52;100.00
51333;BME280;37417;48.118;11.734;2022-07-23T03:30:51;95657.94;;;16.45;100.00
51333;BME280;37417;48.118;11.734;2022-07-23T03:33:37;95672.56;;;16.41;100.00
51333;BME280;37417;48.118;11.734;2022-07-23T03:36:23;95679.69;;;16.40;100.00
51333;BME280;37417;48.118;11.734;2022-07-23T03:39:08;95666.41;;;16.47;100.00
51333;BME280;37417;48.118;11.734;2022-07-23T03:41:54;95655.31;;;16.45;100.00
51333;BME280;37417;48.118;11.734;2022-07-23T03:44:39;95629.09;;;16.50;100.00
51333;BME280;37417;48.118;11.734;2022-07-23T03:47:25;95614.44;;;16.54;100.00
51333;BME280;37417;48.118;11.734;2022-07-23T03:50:11;95600.34;;;16.60;100.00
51333;BME280;37417;48.118;11.734;2022-07-23T03:52:57;95571.06;;;16.80;100.00
51333;BME280;37417;48.118;11.734;2022-07-23T03:55:42;95539.13;;;16.88;100.00
51333;BME280;37417;48.118;11.734;2022-07-23T03:58:28;95504.50;;;16.96;100.00
51333;BME280;37417;48.118;11.734;2022-07-23T04:01:13;95504.56;;;17.13;100.00
51333;BME280;37417;48.118;11.734;2022-07-23T04:03:59;95488.72;;;17.42;100.00
51333;BME280;37417;48.118;11.734;2022-07-23T04:06:45;95498.56;;;17.46;100.00
51333;BME280;37417;48.118;11.734;2022-07-23T04:09:31;95532.31;;;17.61;100.00
51333;BME280;37417;48.118;11.734;2022-07-23T04:12:16;95543.66;;;17.73;100.00
51333;BME280;37417;48.118;11.734;2022-07-23T04:15:02;95546.94;;;17.80;100.00
51333;BME280;37417;48.118;11.734;2022-07-23T04:17:48;95534.78;;;17.79;100.00
51333;BME280;37417;48.118;11.734;2022-07-23T04:20:34;95527.25;;;17.88;100.00
51333;BME280;37417;48.118;11.734;2022-07-23T04:23:19;95525.03;;;17.97;100.00
51333;BME280;37417;48.118;11.734;2022-07-23T04:26:05;95530.09;;;17.98;100.00
51333;BME280;37417;48.118;11.734;2022-07-23T04:28:51;95533.03;;;18.02;100.00
51333;BME280;37417;48.118;11.734;2022-07-23T04:31:36;95523.69;;;18.11;100.00
51333;BME280;37417;48.118;11.734;2022-07-23T04:34:22;95525.66;;;18.21;100.00
51333;BME280;37417;48.118;11.734;2022-07-23T04:37:08;95514.41;;;18.25;100.00
51333;BME280;37417;48.118;11.734;2022-07-23T04:39:53;95501.66;;;18.39;100.00
51333;BME280;37417;48.118;11.734;2022-07-23T04:42:39;95492.75;;;18.45;100.00
51333;BME280;37417;48.118;11.734;2022-07-23T04:45:25;95489.50;;;18.60;100.00
51333;BME280;37417;48.118;11.734;2022-07-23T04:48:11;95499.63;;;18.63;100.00
51333;BME280;37417;48.118;11.734;2022-07-23T04:50:57;95508.00;;;18.60;100.00
51333;BME280;37417;48.118;11.734;2022-07-23T04:53:42;95506.25;;;18.65;100.00
51333;BME280;37417;48.118;11.734;2022-07-23T04:56:28;95499.22;;;18.71;100.00
51333;BME280;37417;48.118;11.734;2022-07-23T04:59:14;95507.31;;;18.86;100.00
51333;BME280;37417;48.118;11.734;2022-07-23T05:01:59;95506.66;;;18.96;100.00
51333;BME280;37417;48.118;11.734;2022-07-23T05:04:45;95485.38;;;19.08;100.00
51333;BME280;37417;48.118;11.734;2022-07-23T05:07:31;95493.66;;;19.16;100.00
51333;BME280;37417;48.118;11.734;2022-07-23T05:10:16;95483.22;;;19.27;100.00
51333;BME280;37417;48.118;11.734;2022-07-23T05:13:02;95473.78;;;19.36;100.00
51333;BME280;37417;48.118;11.734;2022-07-23T05:15:48;95482.38;;;19.48;100.00
51333;BME280;37417;48.118;11.734;2022-07-23T05:18:33;95484.88;;;19.60;100.00
51333;BME280;37417;48.118;11.734;2022-07-23T05:21:19;95497.41;;;19.69;100.00
51333;BME280;37417;48.118;11.734;2022-07-23T05:24:05;95493.00;;;19.80;100.00
51333;BME280;37417;48.118;11.734;2022-07-23T05:26:51;95490.94;;;19.87;100.00
51333;BME280;37417;48.118;11.734;2022-07-23T05:29:37;95493.44;;;19.99;100.00
51333;BME280;37417;48.118;11.734;2022-07-23T05:32:22;95494.84;;;20.12;100.00
51333;BME280;37417;48.118;11.734;2022-07-23T05:35:08;95501.03;;;20.27;100.00
51333;BME280;37417;48.118;11.734;2022-07-23T05:37:54;95501.34;;;20.31;100.00
51333;BME280;37417;48.118;11.734;2022-07-23T05:40:40;95497.09;;;20.30;100.00
51333;BME280;37417;48.118;11.734;2022-07-23T05:43:25;95499.78;;;20.35;100.00
51333;BME280;37417;48.118;11.734;2022-07-23T05:46:11;95511.13;;;20.31;100.00
51333;BME280;37417;48.118;11.734;2022-07-23T05:48:57;95497.34;;;20.28;100.00
51333;BME280;37417;48.118;11.734;2022-07-23T05:51:43;95509.53;;;20.29;100.00
51333;BME280;37417;48.118;11.734;2022-07-23T05:54:28;95508.19;;;20.27;100.00
51333;BME280;37417;48.118;11.734;2022-07-23T05:57:14;95522.78;;;20.29;100.00
51333;BME280;37417;48.118;11.734;2022-07-23T06:00:00;95525.44;;;20.35;100.00
51333;BME280;37417;48.118;11.734;2022-07-23T06:02:46;95528.41;;;20.38;100.00
51333;BME280;37417;48.118;11.734;2022-07-23T06:05:31;95531.34;;;20.42;100.00
51333;BME280;37417;48.118;11.734;2022-07-23T06:08:17;95538.75;;;20.40;100.00
51333;BME280;37417;48.118;11.734;2022-07-23T06:11:03;95540.31;;;20.36;100.00
51333;BME280;37417;48.118;11.734;2022-07-23T06:13:48;95558.34;;;20.39;100.00
51333;BME280;37417;48.118;11.734;2022-07-23T06:16:34;95560.41;;;20.32;100.00
51333;BME280;37417;48.118;11.734;2022-07-23T06:19:20;95562.22;;;20.26;100.00
51333;BME280;37417;48.118;11.734;2022-07-23T06:22:05;95558.78;;;20.25;100.00
51333;BME280;37417;48.118;11.734;2022-07-23T06:24:51;95556.44;;;20.29;100.00
51333;BME280;37417;48.118;11.734;2022-07-23T06:27:37;95553.75;;;20.24;100.00
51333;BME280;37417;48.118;11.734;2022-07-23T06:30:23;95538.00;;;19.80;100.00
51333;BME280;37417;48.118;11.734;2022-07-23T06:33:08;95528.88;;;19.44;100.00
51333;BME280;37417;48.118;11.734;2022-07-23T06:35:55;95527.00;;;19.17;100.00
51333;BME280;37417;48.118;11.734;2022-07-23T06:38:40;95525.06;;;19.08;100.00
51333;BME280;37417;48.118;11.734;2022-07-23T06:41:26;95512.88;;;19.07;100.00
51333;BME280;37417;48.118;11.734;2022-07-23T06:44:11;95522.47;;;19.13;100.00
51333;BME280;37417;48.118;11.734;2022-07-23T06:46:57;95544.22;;;19.20;100.00
51333;BME280;37417;48.118;11.734;2022-07-23T06:49:43;95543.00;;;19.28;100.00
51333;BME280;37417;48.118;11.734;2022-07-23T06:52:28;95543.47;;;19.46;100.00
51333;BME280;37417;48.118;11.734;2022-07-23T06:55:14;95556.59;;;19.58;100.00
51333;BME280;37417;48.118;11.734;2022-07-23T06:58:00;95543.84;;;19.82;100.00
51333;BME280;37417;48.118;11.734;2022-07-23T07:00:46;95557.75;;;19.99;100.00
51333;BME280;37417;48.118;11.734;2022-07-23T07:03:32;95573.13;;;20.29;100.00
51333;BME280;37417;48.118;11.734;2022-07-23T07:06:17;95570.16;;;20.58;100.00
51333;BME280;37417;48.118;11.734;2022-07-23T07:09:03;95575.06;;;20.76;100.00
51333;BME280;37417;48.118;11.734;2022-07-23T07:11:49;95568.25;;;20.91;100.00
51333;BME280;37417;48.118;11.734;2022-07-23T07:14:34;95562.84;;;21.28;100.00
51333;BME280;37417;48.118;11.734;2022-07-23T07:17:20;95575.13;;;21.44;100.00
51333;BME280;37417;48.118;11.734;2022-07-23T07:20:06;95574.72;;;21.88;100.00
51333;BME280;37417;48.118;11.734;2022-07-23T07:22:52;95564.97;;;22.55;100.00
51333;BME280;37417;48.118;11.734;2022-07-23T07:25:38;95569.66;;;22.98;100.00
51333;BME280;37417;48.118;11.734;2022-07-23T07:28:23;95570.81;;;22.57;100.00
51333;BME280;37417;48.118;11.734;2022-07-23T07:31:09;95572.16;;;22.29;100.00
51333;BME280;37417;48.118;11.734;2022-07-23T07:33:55;95565.22;;;22.17;100.00
51333;BME280;37417;48.118;11.734;2022-07-23T07:36:42;95562.28;;;22.34;100.00
51333;BME280;37417;48.118;11.734;2022-07-23T07:39:28;95562.84;;;22.16;100.00
51333;BME280;37417;48.118;11.734;2022-07-23T07:42:14;95581.38;;;22.01;100.00
51333;BME280;37417;48.118;11.734;2022-07-23T07:45:00;95591.09;;;21.54;100.00
51333;BME280;37417;48.118;11.734;2022-07-23T07:47:46;95598.78;;;21.46;100.00
51333;BME280;37417;48.118;11.734;2022-07-23T07:50:32;95595.88;;;21.47;100.00
51333;BME280;37417;48.118;11.734;2022-07-23T07:53:18;95607.09;;;21.17;100.00
51333;BME280;37417;48.118;11.734;2022-07-23T07:56:04;95604.41;;;21.12;100.00
51333;BME280;37417;48.118;11.734;2022-07-23T07:58:50;95605.75;;;21.09;100.00
51333;BME280;37417;48.118;11.734;2022-07-23T08:01:35;95611.59;;;21.17;100.00
51333;BME280;37417;48.118;11.734;2022-07-23T08:04:21;95610.66;;;21.33;100.00
51333;BME280;37417;48.118;11.734;2022-07-23T08:07:07;95609.50;;;21.19;100.00
51333;BME280;37417;48.118;11.734;2022-07-23T08:09:52;95606.88;;;21.24;100.00
51333;BME280;37417;48.118;11.734;2022-07-23T08:12:46;95601.13;;;21.32;100.00
51333;BME280;37417;48.118;11.734;2022-07-23T08:15:32;95608.22;;;21.26;100.00
51333;BME280;37417;48.118;11.734;2022-07-23T08:18:17;95615.34;;;21.21;100.00
51333;BME280;37417;48.118;11.734;2022-07-23T08:21:03;95613.59;;;21.36;100.00
51333;BME280;37417;48.118;11.734;2022-07-23T08:23:52;95610.63;;;21.28;100.00
51333;BME280;37417;48.118;11.734;2022-07-23T08:26:38;95606.97;;;21.39;100.00
51333;BME280;37417;48.118;11.734;2022-07-23T08:29:23;95615.53;;;21.51;100.00
51333;BME280;37417;48.118;11.734;2022-07-23T08:32:09;95618.41;;;21.40;100.00
51333;BME280;37417;48.118;11.734;2022-07-23T08:34:54;95623.88;;;21.90;100.00
51333;BME280;37417;48.118;11.734;2022-07-23T08:37:40;95628.84;;;21.67;100.00
51333;BME280;37417;48.118;11.734;2022-07-23T08:40:27;95635.13;;;21.50;100.00
51333;BME280;37417;48.118;11.734;2022-07-23T08:43:17;95634.78;;;21.31;100.00
51333;BME280;37417;48.118;11.734;2022-07-23T08:46:03;95635.66;;;21.47;100.00
51333;BME280;37417;48.118;11.734;2022-07-23T08:48:49;95632.00;;;21.58;100.00
51333;BME280;37417;48.118;11.734;2022-07-23T08:51:35;95631.44;;;21.46;100.00
51333;BME280;37417;48.118;11.734;2022-07-23T08:54:22;95626.81;;;22.04;100.00
51333;BME280;37417;48.118;11.734;2022-07-23T08:57:07;95625.72;;;21.95;100.00
51333;BME280;37417;48.118;11.734;2022-07-23T08:59:53;95627.44;;;22.37;100.00
51333;BME280;37417;48.118;11.734;2022-07-23T09:02:43;95629.78;;;22.79;100.00
51333;BME280;37417;48.118;11.734;2022-07-23T09:05:29;95628.50;;;22.51;100.00
51333;BME280;37417;48.118;11.734;2022-07-23T09:08:17;95628.72;;;22.14;100.00
51333;BME280;37417;48.118;11.734;2022-07-23T09:11:08;95629.72;;;21.98;100.00
51333;BME280;37417;48.118;11.734;2022-07-23T09:13:54;95636.91;;;21.97;100.00
51333;BME280;37417;48.118;11.734;2022-07-23T09:16:43;95643.34;;;22.11;100.00
51333;BME280;37417;48.118;11.734;2022-07-23T09:19:29;95656.66;;;22.32;100.00
51333;BME280;37417;48.118;11.734;2022-07-23T09:22:22;95653.75;;;22.59;100.00
51333;BME280;37417;48.118;11.734;2022-07-23T09:25:11;95681.66;;;22.51;100.00
51333;BME280;37417;48.118;11.734;2022-07-23T09:27:59;95683.78;;;22.69;100.00
51333;BME280;37417;48.118;11.734;2022-07-23T09:30:50;95680.09;;;23.06;100.00
51333;BME280;37417;48.118;11.734;2022-07-23T09:33:36;95673.13;;;23.26;100.00
51333;BME280;37417;48.118;11.734;2022-07-23T09:36:29;95676.47;;;23.77;100.00
51333;BME280;37417;48.118;11.734;2022-07-23T09:39:24;95685.44;;;24.46;99.35
51333;BME280;37417;48.118;11.734;2022-07-23T09:45:02;95676.47;;;24.26;99.87
51333;BME280;37417;48.118;11.734;2022-07-23T09:47:48;95674.81;;;25.09;94.13
51333;BME280;37417;48.118;11.734;2022-07-23T09:50:33;95677.97;;;25.16;90.83
51333;BME280;37417;48.118;11.734;2022-07-23T09:53:25;95690.00;;;25.14;86.70
51333;BME280;37417;48.118;11.734;2022-07-23T09:56:13;95686.03;;;26.50;81.89
51333;BME280;37417;48.118;11.734;2022-07-23T09:59:00;95679.06;;;25.63;78.89
51333;BME280;37417;48.118;11.734;2022-07-23T10:01:57;95679.75;;;25.26;84.43
51333;BME280;37417;48.118;11.734;2022-07-23T10:04:45;95662.94;;;25.25;84.10
51333;BME280;37417;48.118;11.734;2022-07-23T10:07:33;95665.00;;;25.57;79.94
51333;BME280;37417;48.118;11.734;2022-07-23T10:10:21;95661.69;;;25.42;80.72
51333;BME280;37417;48.118;11.734;2022-07-23T10:13:08;95662.41;;;26.14;77.27
51333;BME280;37417;48.118;11.734;2022-07-23T10:15:57;95666.13;;;27.07;68.14
51333;BME280;37417;48.118;11.734;2022-07-23T10:18:43;95652.44;;;26.76;70.71
51333;BME280;37417;48.118;11.734;2022-07-23T10:21:42;95639.38;;;27.48;63.15
51333;BME280;37417;48.118;11.734;2022-07-23T10:39:32;95615.66;;;27.56;57.10
51333;BME280;37417;48.118;11.734;2022-07-23T10:42:18;95615.38;;;29.10;51.66
51333;BME280;37417;48.118;11.734;2022-07-23T10:45:34;95606.38;;;28.03;49.88
51333;BME280;37417;48.118;11.734;2022-07-23T10:48:26;95598.38;;;27.62;52.45
51333;BME280;37417;48.118;11.734;2022-07-23T10:51:14;95615.38;;;26.51;56.18
51333;BME280;37417;48.118;11.734;2022-07-23T10:54:00;95607.06;;;26.14;59.23
51333;BME280;37417;48.118;11.734;2022-07-23T11:02:48;95615.22;;;25.85;61.51
51333;BME280;37417;48.118;11.734;2022-07-23T11:05:42;95612.69;;;25.75;62.25
51333;BME280;37417;48.118;11.734;2022-07-23T11:08:28;95620.88;;;26.03;61.28
51333;BME280;37417;48.118;11.734;2022-07-23T11:11:14;95633.88;;;25.66;60.36
51333;BME280;37417;48.118;11.734;2022-07-23T11:13:59;95637.03;;;25.74;58.93
51333;BME280;37417;48.118;11.734;2022-07-23T11:16:47;95620.53;;;26.28;56.02
51333;BME280;37417;48.118;11.734;2022-07-23T11:22:58;95619.44;;;26.10;57.73
51333;BME280;37417;48.118;11.734;2022-07-23T11:25:44;95615.25;;;25.61;59.61
51333;BME280;37417;48.118;11.734;2022-07-23T11:28:30;95617.88;;;25.43;60.80
51333;BME280;37417;48.118;11.734;2022-07-23T11:31:18;95616.13;;;25.33;61.85
51333;BME280;37417;48.118;11.734;2022-07-23T11:40:21;95605.72;;;25.31;62.77
51333;BME280;37417;48.118;11.734;2022-07-23T11:43:09;95606.47;;;24.79;62.76
51333;BME280;37417;48.118;11.734;2022-07-23T11:45:59;95606.97;;;24.57;64.91
51333;BME280;37417;48.118;11.734;2022-07-23T11:48:45;95605.41;;;24.51;66.00
51333;BME280;37417;48.118;11.734;2022-07-23T11:51:31;95607.22;;;24.61;64.59
51333;BME280;37417;48.118;11.734;2022-07-23T11:54:18;95604.94;;;24.44;66.32
51333;BME280;37417;48.118;11.734;2022-07-23T11:57:04;95605.41;;;24.51;67.63
51333;BME280;37417;48.118;11.734;2022-07-23T11:59:53;95606.78;;;24.48;69.61
51333;BME280;37417;48.118;11.734;2022-07-23T12:02:42;95605.34;;;24.61;69.57
51333;BME280;37417;48.118;11.734;2022-07-23T12:05:30;95598.16;;;24.56;69.91
51333;BME280;37417;48.118;11.734;2022-07-23T12:08:16;95613.44;;;25.04;68.59
51333;BME280;37417;48.118;11.734;2022-07-23T12:11:02;95610.28;;;25.02;68.23
51333;BME280;37417;48.118;11.734;2022-07-23T12:13:56;95611.03;;;24.78;68.67
51333;BME280;37417;48.118;11.734;2022-07-23T12:16:42;95605.19;;;24.47;70.80
51333;BME280;37417;48.118;11.734;2022-07-23T12:19:27;95608.50;;;24.63;70.28
51333;BME280;37417;48.118;11.734;2022-07-23T12:22:13;95607.06;;;24.76;69.97
51333;BME280;37417;48.118;11.734;2022-07-23T12:25:05;95614.63;;;24.35;71.95
51333;BME280;37417;48.118;11.734;2022-07-23T12:28:00;95611.16;;;24.29;72.56
51333;BME280;37417;48.118;11.734;2022-07-23T12:30:51;95609.03;;;24.26;73.48
51333;BME280;37417;48.118;11.734;2022-07-23T12:33:39;95607.72;;;24.23;74.45
51333;BME280;37417;48.118;11.734;2022-07-23T12:36:37;95608.47;;;24.34;73.48
51333;BME280;37417;48.118;11.734;2022-07-23T12:39:33;95606.03;;;24.38;72.39
51333;BME280;37417;48.118;11.734;2022-07-23T12:42:19;95614.97;;;24.18;74.06
51333;BME280;37417;48.118;11.734;2022-07-23T12:45:11;95597.09;;;23.74;76.69
51333;BME280;37417;48.118;11.734;2022-07-23T12:48:00;95606.84;;;23.89;76.35
51333;BME280;37417;48.118;11.734;2022-07-23T12:50:52;95606.75;;;24.09;75.39
51333;BME280;37417;48.118;11.734;2022-07-23T12:53:41;95614.16;;;24.17;75.42
51333;BME280;37417;48.118;11.734;2022-07-23T12:56:36;95608.88;;;24.07;76.49
51333;BME280;37417;48.118;11.734;2022-07-23T12:59:22;95610.59;;;23.88;76.75
51333;BME280;37417;48.118;11.734;2022-07-23T13:02:09;95610.25;;;24.04;76.47
51333;BME280;37417;48.118;11.734;2022-07-23T13:04:54;95610.53;;;24.03;76.62
51333;BME280;37417;48.118;11.734;2022-07-23T13:07:40;95616.66;;;24.03;76.19
51333;BME280;37417;48.118;11.734;2022-07-23T13:10:26;95609.16;;;24.05;76.63
51333;BME280;37417;48.118;11.734;2022-07-23T13:13:12;95607.28;;;25.37;70.38
51333;BME280;37417;48.118;11.734;2022-07-23T13:15:59;95622.97;;;25.15;71.19
51333;BME280;37417;48.118;11.734;2022-07-23T13:18:45;95616.50;;;25.21;69.44
51333;BME280;37417;48.118;11.734;2022-07-23T13:21:30;95622.47;;;25.85;66.81
51333;BME280;37417;48.118;11.734;2022-07-23T13:24:16;95624.06;;;25.14;68.83
51333;BME280;37417;48.118;11.734;2022-07-23T13:27:02;95627.38;;;24.72;72.01
51333;BME280;37417;48.118;11.734;2022-07-23T13:29:49;95617.75;;;24.42;73.87
51333;BME280;37417;48.118;11.734;2022-07-23T13:32:34;95600.56;;;24.53;72.80
51333;BME280;37417;48.118;11.734;2022-07-23T13:35:20;95615.75;;;24.57;72.04
51333;BME280;37417;48.118;11.734;2022-07-23T13:38:06;95609.63;;;24.57;73.44
51333;BME280;37417;48.118;11.734;2022-07-23T13:40:55;95629.56;;;24.25;75.18
51333;BME280;37417;48.118;11.734;2022-07-23T13:43:40;95615.72;;;24.23;76.48
51333;BME280;37417;48.118;11.734;2022-07-23T13:46:26;95616.56;;;24.14;77.86
51333;BME280;37417;48.118;11.734;2022-07-23T13:49:12;95619.53;;;23.58;80.68
51333;BME280;37417;48.118;11.734;2022-07-23T13:51:57;95609.41;;;23.55;81.85
51333;BME280;37417;48.118;11.734;2022-07-23T13:54:43;95610.63;;;23.83;82.14
51333;BME280;37417;48.118;11.734;2022-07-23T13:57:30;95605.06;;;24.23;79.83
51333;BME280;37417;48.118;11.734;2022-07-23T14:00:16;95609.81;;;23.82;81.77
51333;BME280;37417;48.118;11.734;2022-07-23T14:03:02;95606.75;;;23.55;84.17
51333;BME280;37417;48.118;11.734;2022-07-23T14:05:49;95592.91;;;23.52;83.58
51333;BME280;37417;48.118;11.734;2022-07-23T14:08:34;95591.03;;;23.53;84.12
51333;BME280;37417;48.118;11.734;2022-07-23T14:11:20;95592.38;;;23.50;83.56
51333;BME280;37417;48.118;11.734;2022-07-23T14:14:06;95600.88;;;23.58;84.17
51333;BME280;37417;48.118;11.734;2022-07-23T14:16:52;95602.75;;;23.57;83.05
51333;BME280;37417;48.118;11.734;2022-07-23T14:19:37;95614.19;;;23.58;83.58
51333;BME280;37417;48.118;11.734;2022-07-23T14:22:23;95601.75;;;23.38;85.60
51333;BME280;37417;48.118;11.734;2022-07-23T14:25:09;95597.06;;;22.99;90.61
51333;BME280;37417;48.118;11.734;2022-07-23T14:27:55;95608.53;;;22.89;93.21
51333;BME280;37417;48.118;11.734;2022-07-23T14:30:41;95605.84;;;23.05;92.93
51333;BME280;37417;48.118;11.734;2022-07-23T14:33:29;95597.03;;;23.19;90.88
51333;BME280;37417;48.118;11.734;2022-07-23T14:36:15;95594.28;;;23.45;88.86
51333;BME280;37417;48.118;11.734;2022-07-23T14:39:01;95599.66;;;23.30;88.96
51333;BME280;37417;48.118;11.734;2022-07-23T14:41:46;95597.97;;;23.49;88.15
51333;BME280;37417;48.118;11.734;2022-07-23T14:44:32;95597.41;;;23.67;86.35
51333;BME280;37417;48.118;11.734;2022-07-23T14:47:18;95589.91;;;23.74;84.51
51333;BME280;37417;48.118;11.734;2022-07-23T14:50:04;95584.84;;;23.73;85.32
51333;BME280;37417;48.118;11.734;2022-07-23T14:52:50;95578.13;;;23.86;83.57
51333;BME280;37417;48.118;11.734;2022-07-23T14:55:36;95571.22;;;24.19;81.75
51333;BME280;37417;48.118;11.734;2022-07-23T14:58:22;95567.44;;;23.91;83.86